createdAt,value
2022-09-07T00:01:28.153Z,8.68
2022-09-07T00:06:34.610Z,7.70
2022-09-07T00:11:37.892Z,8.53
2022-09-07T00:16:42.707Z,9.77
2022-09-07T00:21:46.349Z,9.63
2022-09-07T00:26:49.639Z,10.15
2022-09-07T00:31:54.540Z,10.43
2022-09-07T00:36:57.830Z,12.38
2022-09-07T00:42:01.481Z,12.00
2022-09-07T00:47:07.481Z,11.18
2022-09-07T00:52:12.453Z,11.57
2022-09-07T00:57:15.950Z,11.80
2022-09-07T01:02:21.321Z,14.90
2022-09-07T01:07:25.166Z,12.10
2022-09-07T01:12:28.455Z,12.20
2022-09-07T01:17:46.678Z,11.80
2022-09-07T01:23:18.850Z,12.00
2022-09-07T01:28:26.594Z,12.20
2022-09-07T01:33:44.387Z,13.13
2022-09-07T01:38:49.284Z,15.05
2022-09-07T01:44:00.533Z,13.40
2022-09-07T01:49:10.912Z,12.80
2022-09-07T01:54:19.986Z,12.45
2022-09-07T01:59:30.792Z,14.32
2022-09-07T02:04:38.694Z,13.57
2022-09-07T02:09:48.517Z,14.00
2022-09-07T02:14:57.937Z,14.50
2022-09-07T02:20:07.946Z,14.52
2022-09-07T02:25:15.581Z,15.43
2022-09-07T02:30:20.282Z,14.98
2022-09-07T02:35:23.751Z,14.30
2022-09-07T02:40:27.110Z,12.90
2022-09-07T02:45:39.278Z,12.25
2022-09-07T02:51:03.700Z,12.70
2022-09-07T02:56:19.418Z,12.40
2022-09-07T03:01:33.238Z,11.90
2022-09-07T03:06:41.029Z,16.97
2022-09-07T03:11:44.392Z,16.17
2022-09-07T03:16:50.531Z,15.30
2022-09-07T03:21:53.869Z,15.83
2022-09-07T03:26:57.458Z,16.40
2022-09-07T03:32:02.121Z,16.13
2022-09-07T03:37:05.447Z,16.38
2022-09-07T03:42:08.949Z,15.90
2022-09-07T03:47:14.028Z,12.23
2022-09-07T03:52:17.317Z,13.20
2022-09-07T03:57:21.175Z,12.63
2022-09-07T04:02:25.905Z,14.48
2022-09-07T04:07:29.218Z,14.70
2022-09-07T04:12:32.539Z,12.60
2022-09-07T04:17:37.192Z,12.05
2022-09-07T04:22:40.511Z,12.40
2022-09-07T04:27:43.974Z,13.73
2022-09-07T04:32:49.172Z,12.20
2022-09-07T04:37:52.462Z,14.05
2022-09-07T04:42:55.738Z,16.45
2022-09-07T04:48:00.411Z,15.05
2022-09-07T04:53:03.658Z,13.18
2022-09-07T04:58:07.306Z,11.20
2022-09-07T05:03:12.168Z,12.80
2022-09-07T05:08:16.434Z,12.85
2022-09-07T05:13:19.799Z,11.90
2022-09-07T05:18:24.569Z,12.10
2022-09-07T05:23:27.895Z,9.20
2022-09-07T05:28:31.356Z,10.35
2022-09-07T05:39:00.728Z,12.00
2022-09-07T05:49:29.469Z,12.05
2022-09-07T05:54:32.735Z,16.08
2022-09-07T05:59:36.273Z,15.80
2022-09-07T06:04:40.903Z,14.15
2022-09-07T06:15:08.684Z,12.65
2022-09-07T06:20:14.006Z,13.40
2022-09-07T06:25:17.408Z,12.18
2022-09-07T06:30:20.978Z,12.20
2022-09-07T06:35:26.044Z,12.40
2022-09-07T06:40:29.418Z,10.20
2022-09-07T06:45:32.705Z,9.50
2022-09-07T06:50:37.446Z,9.80
2022-09-07T06:55:45.007Z,9.05
2022-09-07T07:00:48.458Z,11.30
2022-09-07T07:05:54.771Z,8.52
2022-09-07T07:11:02.288Z,7.20
2022-09-07T07:16:07.231Z,7.23
2022-09-07T07:21:13.336Z,7.18
2022-09-07T07:26:18.971Z,6.28
2022-09-07T07:31:24.975Z,7.88
2022-09-07T07:36:29.622Z,5.70
2022-09-07T07:46:57.160Z,5.90
2022-09-07T07:57:25.463Z,6.88
2022-09-07T08:02:29.007Z,5.97
2022-09-07T08:07:33.629Z,5.43
2022-09-07T08:12:37.152Z,7.28
2022-09-07T08:17:40.894Z,6.15
2022-09-07T08:22:45.492Z,7.03
2022-09-07T08:27:48.940Z,7.60
2022-09-07T08:32:52.250Z,6.53
2022-09-07T08:37:56.897Z,7.47
2022-09-07T08:43:10.945Z,7.87
2022-09-07T08:48:18.508Z,7.75
2022-09-07T08:53:25.149Z,6.90
2022-09-07T08:58:50.678Z,7.10
2022-09-07T09:09:28.068Z,6.90
2022-09-07T09:14:42.706Z,5.53
2022-09-07T09:20:00.291Z,6.15
2022-09-07T09:25:16.632Z,6.97
2022-09-07T09:30:21.405Z,6.50
2022-09-07T09:35:30.268Z,8.40
2022-09-07T09:40:36.477Z,6.10
2022-09-07T09:56:42.766Z,5.07
2022-09-07T10:07:22.056Z,5.78
2022-09-07T10:12:32.183Z,5.00
2022-09-07T10:17:37.736Z,5.40
2022-09-07T10:22:41.009Z,3.83
2022-09-07T10:27:46.859Z,6.35
2022-09-07T10:33:02.379Z,3.45
2022-09-07T10:38:16.285Z,5.23
2022-09-07T10:43:31.241Z,3.95
2022-09-07T10:48:42.065Z,4.53
2022-09-07T11:05:05.023Z,4.47
2022-09-07T11:10:17.345Z,3.80
2022-09-07T11:15:28.531Z,3.80
2022-09-07T11:20:35.582Z,4.83
2022-09-07T11:25:46.692Z,2.50
2022-09-07T11:31:00.268Z,5.00
2022-09-07T11:36:12.199Z,3.55
2022-09-07T11:41:25.597Z,6.72
2022-09-07T11:46:37.085Z,6.55
2022-09-07T11:51:44.058Z,6.18
2022-09-07T11:56:53.656Z,5.20
2022-09-07T12:02:16.998Z,5.47
2022-09-07T12:07:42.996Z,7.22
2022-09-07T12:13:07.899Z,3.90
2022-09-07T12:18:27.935Z,6.50
2022-09-07T12:23:32.646Z,4.55
2022-09-07T12:29:07.475Z,4.47
2022-09-07T12:34:47.447Z,4.53
2022-09-07T12:39:50.753Z,5.22
2022-09-07T12:45:38.385Z,4.97
2022-09-07T12:50:51.437Z,5.38
2022-09-07T12:56:17.458Z,4.93
2022-09-07T13:01:38.305Z,6.43
2022-09-07T13:07:06.979Z,3.88
2022-09-07T13:17:57.354Z,5.28
2022-09-07T13:23:24.580Z,5.68
2022-09-07T13:28:37.205Z,5.63
2022-09-07T13:33:47.482Z,3.70
2022-09-07T13:38:53.094Z,6.70
2022-09-07T13:44:00.821Z,4.50
2022-09-07T13:49:14.134Z,4.85
2022-09-07T13:54:27.675Z,4.57
2022-09-07T13:59:34.960Z,4.68
2022-09-07T14:04:41.404Z,4.68
2022-09-07T14:09:46.007Z,4.18
2022-09-07T14:15:09.489Z,5.18
2022-09-07T14:20:15.636Z,5.13
2022-09-07T14:25:22.240Z,3.87
2022-09-07T14:30:29.215Z,3.05
2022-09-07T14:35:35.348Z,3.83
2022-09-07T14:40:40.274Z,4.45
2022-09-07T14:45:43.674Z,5.03
2022-09-07T14:51:01.028Z,5.03
2022-09-07T14:56:20.899Z,6.38
2022-09-07T15:01:41.566Z,4.05
2022-09-07T15:07:02.306Z,5.13
2022-09-07T15:12:38.365Z,4.95
2022-09-07T15:17:43.857Z,4.20
2022-09-07T15:22:47.431Z,4.60
2022-09-07T15:27:52.445Z,3.83
2022-09-07T15:32:57.304Z,4.22
2022-09-07T15:38:02.368Z,3.42
2022-09-07T15:43:19.902Z,3.30
2022-09-07T15:48:25.631Z,3.40
2022-09-07T15:58:57.864Z,5.63
2022-09-07T16:04:01.710Z,4.50
2022-09-07T16:09:07.814Z,3.83
2022-09-07T16:14:13.778Z,3.30
2022-09-07T16:19:20.531Z,5.68
2022-09-07T16:24:24.180Z,4.87
2022-09-07T16:29:28.977Z,4.78
2022-09-07T16:34:32.243Z,5.53
2022-09-07T16:39:35.729Z,3.67
2022-09-07T16:44:40.423Z,4.67
2022-09-07T16:49:43.715Z,5.70
2022-09-07T16:54:47.086Z,3.33
2022-09-07T16:59:51.716Z,5.55
2022-09-07T17:04:54.945Z,7.28
2022-09-07T17:09:58.286Z,5.00
2022-09-07T17:15:03.146Z,4.55
2022-09-07T17:20:08.240Z,5.20
2022-09-07T17:25:14.032Z,5.80
2022-09-07T17:30:20.823Z,4.65
2022-09-07T17:35:26.248Z,4.20
2022-09-07T17:40:29.899Z,5.47
2022-09-07T17:45:36.642Z,8.83
2022-09-07T17:50:39.997Z,7.40
2022-09-07T17:55:46.076Z,7.43
2022-09-07T18:00:51.055Z,5.70
2022-09-07T18:05:55.209Z,5.43
2022-09-07T18:16:32.653Z,5.80
2022-09-07T18:21:38.134Z,10.30
2022-09-07T18:26:41.686Z,4.83
2022-09-07T18:31:46.397Z,7.15
2022-09-07T18:36:50.006Z,6.03
2022-09-07T18:41:54.507Z,4.57
2022-09-07T18:46:59.187Z,5.63
2022-09-07T18:57:25.956Z,5.17
2022-09-07T19:02:31.125Z,4.97
2022-09-07T19:07:34.456Z,5.20
2022-09-07T19:12:37.691Z,3.67
2022-09-07T19:17:42.283Z,4.22
2022-09-07T19:22:45.662Z,6.00
2022-09-07T19:27:48.907Z,5.20
2022-09-07T19:32:53.506Z,5.03
2022-09-07T19:37:56.944Z,6.28
2022-09-07T19:43:00.229Z,7.40
2022-09-07T19:48:05.003Z,5.30
2022-09-07T19:53:08.309Z,4.77
2022-09-07T19:58:12.284Z,6.28
2022-09-07T20:03:16.880Z,6.85
2022-09-07T20:08:20.104Z,6.55
2022-09-07T20:13:23.422Z,6.77
2022-09-07T20:18:28.559Z,7.00
2022-09-07T20:23:31.900Z,5.35
2022-09-07T20:28:35.925Z,5.95
2022-09-07T20:33:41.586Z,5.72
2022-09-07T20:38:46.611Z,5.35
2022-09-07T20:43:50.220Z,8.48
2022-09-07T20:48:54.867Z,7.20
2022-09-07T20:53:58.717Z,7.40
2022-09-07T20:59:03.858Z,5.80
2022-09-07T21:04:08.531Z,6.97
2022-09-07T21:09:11.753Z,7.53
2022-09-07T21:14:15.607Z,7.10
2022-09-07T21:19:20.292Z,7.05
2022-09-07T21:24:24.656Z,6.43
2022-09-07T21:29:27.859Z,7.00
2022-09-07T21:34:32.483Z,8.70
2022-09-07T21:39:35.818Z,8.73
2022-09-07T21:44:39.085Z,8.70
2022-09-07T21:49:44.636Z,6.70
2022-09-07T21:54:47.989Z,8.67
2022-09-07T21:59:51.298Z,5.30
2022-09-07T22:04:56.886Z,6.70
2022-09-07T22:10:01.497Z,9.57
2022-09-07T22:15:05.209Z,8.10
2022-09-07T22:20:11.977Z,8.48
2022-09-07T22:25:15.427Z,7.78
2022-09-07T22:30:18.791Z,8.55
2022-09-07T22:35:25.619Z,8.88
2022-09-07T22:40:28.858Z,5.70
2022-09-07T22:45:32.122Z,8.90
2022-09-07T22:50:36.687Z,8.00
2022-09-07T22:55:40.197Z,6.40
2022-09-07T23:00:45.215Z,4.97
2022-09-07T23:05:49.841Z,8.02
2022-09-07T23:10:53.322Z,7.35
2022-09-07T23:15:56.619Z,7.35
2022-09-07T23:21:01.602Z,4.47
2022-09-07T23:26:05.504Z,5.20
2022-09-07T23:31:11.779Z,7.32
2022-09-07T23:36:17.374Z,6.85
2022-09-07T23:41:20.681Z,6.40
2022-09-07T23:46:24.141Z,7.20
2022-09-07T23:51:28.822Z,5.60
2022-09-07T23:56:32.749Z,6.25
